createdAt,value
2017-08-17T00:01:57.578Z,100750.41
2017-08-17T00:04:30.657Z,100755.27
2017-08-17T00:07:03.329Z,100751.16
2017-08-17T00:09:34.561Z,100755.91
2017-08-17T00:12:10.261Z,100761.83
2017-08-17T00:14:41.720Z,100758.51
2017-08-17T00:17:13.223Z,100758.38
2017-08-17T00:19:44.339Z,100764.85
2017-08-17T00:22:15.947Z,100768.37
2017-08-17T00:24:48.975Z,100767.52
2017-08-17T00:27:20.002Z,100776.45
2017-08-17T00:29:51.045Z,100774.20
2017-08-17T00:32:22.189Z,100774.62
2017-08-17T00:34:53.272Z,100775.31
2017-08-17T00:37:24.386Z,100775.89
2017-08-17T00:39:56.648Z,100772.31
2017-08-17T00:42:27.852Z,100773.28
2017-08-17T00:45:01.027Z,100772.24
2017-08-17T00:47:32.464Z,100775.03
2017-08-17T00:50:07.073Z,100773.30
2017-08-17T00:52:38.202Z,100765.67
2017-08-17T00:55:10.150Z,100760.42
2017-08-17T00:57:41.187Z,100756.63
2017-08-17T01:00:13.687Z,100762.39
2017-08-17T01:02:45.263Z,100758.44
2017-08-17T01:05:16.318Z,100761.27
2017-08-17T01:07:47.362Z,100756.67
2017-08-17T01:10:19.433Z,100756.20
2017-08-17T01:12:50.484Z,100754.77
2017-08-17T01:15:21.582Z,100751.06
2017-08-17T01:17:53.212Z,100746.89
2017-08-17T01:20:24.258Z,100737.78
2017-08-17T01:22:55.582Z,100740.86
2017-08-17T01:25:26.704Z,100744.00
2017-08-17T01:28:00.621Z,100745.69
2017-08-17T01:30:31.663Z,100749.21
2017-08-17T01:33:04.431Z,100758.77
2017-08-17T01:35:35.492Z,100758.91
2017-08-17T01:38:07.907Z,100758.80
2017-08-17T01:40:38.958Z,100757.09
2017-08-17T01:43:10.463Z,100750.09
2017-08-17T01:45:41.482Z,100747.95
2017-08-17T01:48:12.690Z,100748.44
2017-08-17T01:50:43.813Z,100748.30
2017-08-17T01:53:15.239Z,100752.37
2017-08-17T01:55:46.271Z,100746.62
2017-08-17T01:58:17.874Z,100745.63
2017-08-17T02:00:49.466Z,100754.23
2017-08-17T02:03:20.453Z,100745.52
2017-08-17T02:05:51.826Z,100744.11
2017-08-17T02:08:22.843Z,100747.92
2017-08-17T02:10:53.896Z,100744.66
2017-08-17T02:13:24.861Z,100740.22
2017-08-17T02:15:57.636Z,100744.66
2017-08-17T02:18:28.652Z,100747.09
2017-08-17T02:21:00.219Z,100740.44
2017-08-17T02:23:31.689Z,100737.69
2017-08-17T02:26:06.353Z,100731.36
2017-08-17T02:28:37.355Z,100724.27
2017-08-17T02:31:08.726Z,100722.13
2017-08-17T02:33:39.714Z,100721.56
2017-08-17T02:36:13.326Z,100718.76
2017-08-17T02:38:45.053Z,100712.83
2017-08-17T02:41:16.080Z,100710.78
2017-08-17T02:43:47.065Z,100711.36
2017-08-17T02:46:18.122Z,100707.27
2017-08-17T02:48:49.526Z,100710.47
2017-08-17T02:51:20.509Z,100707.87
2017-08-17T02:53:53.157Z,100708.55
2017-08-17T02:58:51.703Z,100707.58
2017-08-17T03:01:22.702Z,100703.50
2017-08-17T03:03:54.211Z,100697.05
2017-08-17T03:06:25.218Z,100697.96
2017-08-17T03:08:57.420Z,100699.86
2017-08-17T03:11:28.434Z,100701.87
2017-08-17T03:14:02.921Z,100699.06
2017-08-17T03:16:33.953Z,100696.94
2017-08-17T03:19:05.407Z,100698.59
2017-08-17T03:21:36.417Z,100696.31
2017-08-17T03:24:07.570Z,100688.83
2017-08-17T03:26:38.571Z,100694.27
2017-08-17T03:29:09.899Z,100700.88
2017-08-17T03:31:41.227Z,100701.87
2017-08-17T03:34:13.222Z,100704.23
2017-08-17T03:36:44.779Z,100705.08
2017-08-17T03:39:15.773Z,100701.87
2017-08-17T03:41:47.658Z,100705.02
2017-08-17T03:44:19.334Z,100709.13
2017-08-17T03:46:50.406Z,100708.66
2017-08-17T03:49:21.660Z,100705.79
2017-08-17T03:51:52.665Z,100708.83
2017-08-17T03:54:23.784Z,100709.73
2017-08-17T03:56:55.317Z,100716.11
2017-08-17T03:59:26.521Z,100725.55
2017-08-17T04:01:59.662Z,100733.08
2017-08-17T04:04:31.009Z,100739.03
2017-08-17T04:07:02.549Z,100734.75
2017-08-17T04:09:33.537Z,100743.72
2017-08-17T04:12:05.562Z,100742.86
2017-08-17T04:14:37.013Z,100747.39
2017-08-17T04:17:08.009Z,100745.09
2017-08-17T04:19:39.004Z,100751.10
2017-08-17T04:22:10.911Z,100748.33
2017-08-17T04:24:41.909Z,100754.20
2017-08-17T04:27:12.896Z,100749.47
2017-08-17T04:29:44.256Z,100751.29
2017-08-17T04:32:15.253Z,100753.84
2017-08-17T04:34:46.261Z,100754.08
2017-08-17T04:37:17.229Z,100755.27
2017-08-17T04:39:48.786Z,100761.80
2017-08-17T04:42:20.424Z,100766.99
2017-08-17T04:44:51.493Z,100760.94
2017-08-17T04:47:23.014Z,100757.98
2017-08-17T04:49:54.077Z,100756.42
2017-08-17T04:52:25.253Z,100761.98
2017-08-17T04:54:57.161Z,100751.21
2017-08-17T04:57:44.200Z,100752.75
2017-08-17T05:00:16.178Z,100750.78
2017-08-17T05:02:47.657Z,100756.28
2017-08-17T05:05:18.779Z,100760.45
2017-08-17T05:07:49.835Z,100765.50
2017-08-17T05:10:20.906Z,100764.22
2017-08-17T05:12:52.392Z,100766.14
2017-08-17T05:15:23.870Z,100769.47
2017-08-17T05:17:54.949Z,100755.20
2017-08-17T05:20:26.335Z,100753.16
2017-08-17T05:22:58.071Z,100742.05
2017-08-17T05:25:29.334Z,100743.59
2017-08-17T05:28:05.191Z,100744.77
2017-08-17T05:30:36.495Z,100742.05
2017-08-17T05:33:07.494Z,100742.68
2017-08-17T05:35:38.830Z,100744.98
2017-08-17T05:38:09.873Z,100749.06
2017-08-17T05:40:40.881Z,100744.80
2017-08-17T05:43:12.220Z,100747.20
2017-08-17T05:45:43.246Z,100745.78
2017-08-17T05:48:15.120Z,100743.99
2017-08-17T05:50:46.137Z,100747.77
2017-08-17T05:53:17.157Z,100745.70
2017-08-17T05:55:48.207Z,100752.14
2017-08-17T05:58:19.264Z,100750.73
2017-08-17T06:00:50.347Z,100751.16
2017-08-17T06:03:21.367Z,100749.98
2017-08-17T06:05:52.343Z,100751.86
2017-08-17T06:08:24.021Z,100750.44
2017-08-17T06:10:55.240Z,100744.55
2017-08-17T06:13:26.234Z,100740.18
2017-08-17T06:15:58.245Z,100732.59
2017-08-17T06:18:29.670Z,100737.89
2017-08-17T06:21:02.478Z,100731.67
2017-08-17T06:23:33.478Z,100722.13
2017-08-17T06:26:05.963Z,100722.29
2017-08-17T06:28:36.964Z,100725.36
2017-08-17T06:31:07.972Z,100719.52
2017-08-17T06:33:39.078Z,100720.30
2017-08-17T06:36:11.414Z,100736.29
2017-08-17T06:38:42.674Z,100738.37
2017-08-17T06:41:13.703Z,100737.86
2017-08-17T06:43:44.685Z,100735.53
2017-08-17T06:46:16.941Z,100731.28
2017-08-17T06:48:47.946Z,100726.44
2017-08-17T06:51:19.571Z,100731.63
2017-08-17T06:53:50.635Z,100739.27
2017-08-17T06:56:22.377Z,100739.91
2017-08-17T06:58:53.733Z,100744.27
2017-08-17T07:01:24.779Z,100741.42
2017-08-17T07:03:55.793Z,100741.56
2017-08-17T07:06:27.149Z,100740.62
2017-08-17T07:08:59.656Z,100739.02
2017-08-17T07:11:30.738Z,100735.52
2017-08-17T07:14:04.060Z,100740.36
2017-08-17T07:16:35.058Z,100737.80
2017-08-17T07:19:06.064Z,100735.07
2017-08-17T07:21:37.365Z,100733.08
2017-08-17T07:24:08.455Z,100730.88
2017-08-17T07:26:39.469Z,100726.02
2017-08-17T07:29:10.858Z,100723.69
2017-08-17T07:31:41.843Z,100729.52
2017-08-17T07:34:13.940Z,100742.75
2017-08-17T07:36:44.930Z,100742.14
2017-08-17T07:39:15.897Z,100739.17
2017-08-17T07:41:46.929Z,100742.63
2017-08-17T07:44:17.921Z,100748.94
2017-08-17T07:46:49.335Z,100749.91
2017-08-17T07:49:20.622Z,100756.58
2017-08-17T07:51:51.863Z,100749.19
2017-08-17T07:54:22.997Z,100753.17
2017-08-17T07:56:54.028Z,100746.42
2017-08-17T07:59:25.025Z,100750.05
2017-08-17T08:01:57.277Z,100745.73
2017-08-17T08:04:28.378Z,100748.84
2017-08-17T08:07:01.818Z,100746.33
2017-08-17T08:09:34.019Z,100746.58
2017-08-17T08:12:07.883Z,100750.25
2017-08-17T08:14:38.855Z,100746.86
2017-08-17T08:17:10.177Z,100747.08
2017-08-17T08:19:41.146Z,100745.73
2017-08-17T08:22:13.085Z,100738.64
2017-08-17T08:24:44.438Z,100744.77
2017-08-17T08:27:15.414Z,100748.66
2017-08-17T08:29:46.459Z,100755.66
2017-08-17T08:32:18.329Z,100756.83
2017-08-17T08:34:49.397Z,100759.05
2017-08-17T08:37:20.436Z,100758.58
2017-08-17T08:39:51.561Z,100757.56
2017-08-17T08:42:23.150Z,100752.63
2017-08-17T08:44:54.175Z,100752.44
2017-08-17T08:47:25.308Z,100750.70
2017-08-17T08:49:57.306Z,100751.53
2017-08-17T08:52:30.289Z,100748.38
2017-08-17T08:55:08.674Z,100754.84
2017-08-17T08:57:39.789Z,100748.27
2017-08-17T09:00:15.672Z,100747.38
2017-08-17T09:02:49.185Z,100746.95
2017-08-17T09:05:20.280Z,100744.83
2017-08-17T09:07:52.492Z,100744.63
2017-08-17T09:10:23.562Z,100738.92
2017-08-17T09:13:02.441Z,100739.20
2017-08-17T09:15:37.201Z,100738.98
2017-08-17T09:18:10.001Z,100733.56
2017-08-17T09:20:42.259Z,100730.72
2017-08-17T09:23:13.729Z,100730.53
2017-08-17T09:25:45.199Z,100721.06
2017-08-17T09:28:19.128Z,100724.17
2017-08-17T09:31:15.897Z,100715.92
2017-08-17T09:33:47.030Z,100712.98
2017-08-17T09:36:21.992Z,100717.47
2017-08-17T09:38:53.441Z,100713.28
2017-08-17T09:41:24.430Z,100714.26
2017-08-17T09:43:55.590Z,100715.02
2017-08-17T09:46:26.708Z,100715.07
2017-08-17T09:49:02.529Z,100715.49
2017-08-17T09:51:33.517Z,100713.36
2017-08-17T09:54:07.519Z,100718.08
2017-08-17T09:56:38.921Z,100708.41
2017-08-17T09:59:09.924Z,100704.80
2017-08-17T10:01:40.930Z,100705.30
2017-08-17T10:04:12.317Z,100695.51
2017-08-17T10:06:43.307Z,100693.95
2017-08-17T10:09:14.314Z,100696.83
2017-08-17T10:11:45.790Z,100698.97
2017-08-17T10:14:17.868Z,100700.44
2017-08-17T10:16:49.184Z,100704.78
2017-08-17T10:19:20.530Z,100700.48
2017-08-17T10:21:51.595Z,100697.73
2017-08-17T10:24:23.549Z,100695.33
2017-08-17T10:26:54.542Z,100687.66
2017-08-17T10:29:25.531Z,100688.49
2017-08-17T10:31:57.347Z,100676.62
2017-08-17T10:34:28.725Z,100674.88
2017-08-17T10:37:02.586Z,100678.03
2017-08-17T10:39:33.669Z,100677.30
2017-08-17T10:42:08.637Z,100680.39
2017-08-17T10:44:39.946Z,100668.25
2017-08-17T10:47:11.165Z,100667.89
2017-08-17T10:49:42.835Z,100670.61
2017-08-17T10:52:15.691Z,100665.44
2017-08-17T10:54:47.002Z,100664.36
2017-08-17T10:57:18.039Z,100664.45
2017-08-17T10:59:49.483Z,100661.48
2017-08-17T11:02:21.317Z,100664.56
2017-08-17T11:04:52.598Z,100664.58
2017-08-17T11:07:23.932Z,100653.23
2017-08-17T11:09:55.220Z,100655.38
2017-08-17T11:12:26.275Z,100650.75
2017-08-17T11:15:05.035Z,100655.66
2017-08-17T11:17:37.184Z,100660.45
2017-08-17T11:20:10.977Z,100653.38
2017-08-17T11:22:42.714Z,100647.68
2017-08-17T11:25:13.904Z,100652.39
2017-08-17T11:27:45.214Z,100647.94
2017-08-17T11:30:19.813Z,100649.73
2017-08-17T11:32:51.009Z,100639.00
2017-08-17T11:35:22.331Z,100635.94
2017-08-17T11:37:53.558Z,100629.41
2017-08-17T11:40:25.803Z,100626.55
2017-08-17T11:43:03.512Z,100625.85
2017-08-17T11:45:36.816Z,100626.28
2017-08-17T11:48:09.511Z,100620.52
2017-08-17T11:50:41.204Z,100625.59
2017-08-17T11:53:13.259Z,100628.25
2017-08-17T11:58:41.382Z,100632.92
2017-08-17T12:01:13.038Z,100632.41
2017-08-17T12:03:44.099Z,100623.37
2017-08-17T12:06:18.025Z,100632.89
2017-08-17T12:08:49.094Z,100631.06
2017-08-17T12:11:20.536Z,100625.72
2017-08-17T12:13:51.909Z,100626.00
2017-08-17T12:16:23.889Z,100621.32
2017-08-17T12:18:55.311Z,100618.05
2017-08-17T12:21:27.339Z,100622.72
2017-08-17T12:24:04.643Z,100611.21
2017-08-17T12:26:35.656Z,100613.44
2017-08-17T12:29:07.338Z,100605.78
2017-08-17T12:31:38.479Z,100604.53
2017-08-17T12:34:12.852Z,100597.88
2017-08-17T12:36:44.288Z,100599.01
2017-08-17T12:39:15.365Z,100592.41
2017-08-17T12:41:48.547Z,100589.11
2017-08-17T12:44:20.797Z,100593.67
2017-08-17T12:46:52.064Z,100589.98
2017-08-17T12:49:23.662Z,100595.75
2017-08-17T12:51:55.572Z,100598.56
2017-08-17T12:54:26.988Z,100606.84
2017-08-17T12:57:07.770Z,100603.56
2017-08-17T12:59:39.040Z,100624.69
2017-08-17T13:02:12.022Z,100602.86
2017-08-17T13:04:43.625Z,100603.73
2017-08-17T13:07:15.302Z,100593.69
2017-08-17T13:09:46.619Z,100592.50
2017-08-17T13:12:19.656Z,100584.15
2017-08-17T13:14:51.985Z,100577.27
2017-08-17T13:20:35.973Z,100568.17
2017-08-17T13:23:10.503Z,100565.56
2017-08-17T13:25:42.041Z,100576.07
2017-08-17T13:28:13.776Z,100562.98
2017-08-17T13:30:47.936Z,100564.70
2017-08-17T13:33:19.202Z,100567.48
2017-08-17T13:35:51.030Z,100568.27
2017-08-17T13:38:28.211Z,100564.47
